createdAt,value
2022-12-22T00:00:20.741Z,93.40
2022-12-22T00:03:32.128Z,87.38
2022-12-22T00:06:18.621Z,82.15
2022-12-22T00:09:05.953Z,79.72
2022-12-22T00:11:52.326Z,88.82
2022-12-22T00:14:39.385Z,88.30
2022-12-22T00:17:42.056Z,91.50
2022-12-22T00:20:39.151Z,99.75
2022-12-22T00:23:27.633Z,96.55
2022-12-22T00:26:16.080Z,100.38
2022-12-22T00:29:02.658Z,104.03
2022-12-22T00:31:49.353Z,102.40
2022-12-22T00:34:40.398Z,100.15
2022-12-22T00:37:35.914Z,97.80
2022-12-22T00:40:38.773Z,98.10
2022-12-22T00:43:25.573Z,99.45
2022-12-22T00:46:12.483Z,99.80
2022-12-22T00:49:01.821Z,100.82
2022-12-22T00:51:49.704Z,95.43
2022-12-22T00:54:37.731Z,98.75
2022-12-22T00:57:23.987Z,100.30
2022-12-22T01:00:12.711Z,99.18
2022-12-22T01:02:59.271Z,98.55
2022-12-22T01:05:46.275Z,99.75
2022-12-22T01:08:32.678Z,98.03
2022-12-22T01:11:19.134Z,93.07
2022-12-22T01:14:05.297Z,90.47
2022-12-22T01:16:51.950Z,86.38
2022-12-22T01:19:37.819Z,81.40
2022-12-22T01:22:34.587Z,82.40
2022-12-22T01:25:20.855Z,79.35
2022-12-22T01:28:07.625Z,78.53
2022-12-22T01:30:54.641Z,82.03
2022-12-22T01:33:59.542Z,79.55
2022-12-22T01:36:45.854Z,77.95
2022-12-22T01:39:32.459Z,79.32
2022-12-22T01:42:18.717Z,76.75
2022-12-22T01:45:05.251Z,76.50
2022-12-22T01:47:53.176Z,78.68
2022-12-22T01:50:50.783Z,78.75
2022-12-22T01:53:43.735Z,74.47
2022-12-22T01:56:30.964Z,68.65
2022-12-22T01:59:22.329Z,69.90
2022-12-22T02:02:09.062Z,67.72
2022-12-22T02:05:02.190Z,70.10
2022-12-22T02:08:14.120Z,65.50
2022-12-22T02:11:13.750Z,65.93
2022-12-22T02:14:17.167Z,66.57
2022-12-22T02:17:50.706Z,67.28
2022-12-22T02:20:46.072Z,70.25
2022-12-22T02:23:43.229Z,72.78
2022-12-22T02:26:45.766Z,69.78
2022-12-22T02:29:37.010Z,72.00
2022-12-22T02:32:25.185Z,70.95
2022-12-22T02:35:11.499Z,75.57
2022-12-22T02:38:39.902Z,73.35
2022-12-22T02:41:55.011Z,74.45
2022-12-22T02:45:07.993Z,72.15
2022-12-22T02:48:28.435Z,73.25
2022-12-22T02:51:30.056Z,72.40
2022-12-22T02:54:16.612Z,74.40
2022-12-22T02:57:04.800Z,73.63
2022-12-22T02:59:51.185Z,73.00
2022-12-22T03:02:37.971Z,74.72
2022-12-22T03:05:24.575Z,71.93
2022-12-22T03:08:11.324Z,72.40
2022-12-22T03:10:57.719Z,73.97
2022-12-22T03:13:44.420Z,70.45
2022-12-22T03:16:30.485Z,71.50
2022-12-22T03:19:17.024Z,71.47
2022-12-22T03:22:03.343Z,73.88
2022-12-22T03:24:49.916Z,71.00
2022-12-22T03:27:17.445Z,68.35
2022-12-22T03:29:45.450Z,67.07
2022-12-22T03:32:13.024Z,67.30
2022-12-22T03:34:40.890Z,63.13
2022-12-22T03:37:08.435Z,65.38
2022-12-22T03:39:36.432Z,64.22
2022-12-22T03:42:22.808Z,62.00
2022-12-22T03:45:09.452Z,62.83
2022-12-22T03:47:36.975Z,64.55
2022-12-22T03:50:05.386Z,63.88
2022-12-22T03:52:32.930Z,61.10
2022-12-22T03:55:00.821Z,62.47
2022-12-22T03:57:28.403Z,62.58
2022-12-22T03:59:56.436Z,62.20
2022-12-22T04:02:24.093Z,60.13
2022-12-22T04:04:51.972Z,64.10
2022-12-22T04:07:19.567Z,62.58
2022-12-22T04:10:05.885Z,62.95
2022-12-22T04:12:51.971Z,62.50
2022-12-22T04:15:20.384Z,61.50
2022-12-22T04:17:47.930Z,61.85
2022-12-22T04:20:15.901Z,64.93
2022-12-22T04:22:43.436Z,63.50
2022-12-22T04:25:11.924Z,62.33
2022-12-22T04:27:40.131Z,62.63
2022-12-22T04:30:09.218Z,59.55
2022-12-22T04:32:36.878Z,63.50
2022-12-22T04:35:06.047Z,62.22
2022-12-22T04:37:33.954Z,61.03
2022-12-22T04:40:01.874Z,62.00
2022-12-22T04:42:29.741Z,60.83
2022-12-22T04:44:57.574Z,61.67
2022-12-22T04:47:25.231Z,62.33
2022-12-22T04:49:55.696Z,62.08
2022-12-22T04:52:23.452Z,64.53
2022-12-22T04:54:51.297Z,64.03
2022-12-22T04:57:19.194Z,63.38
2022-12-22T04:59:47.314Z,63.70
2022-12-22T05:02:15.593Z,60.72
2022-12-22T05:04:43.642Z,62.13
2022-12-22T05:07:11.355Z,64.22
2022-12-22T05:09:40.710Z,64.43
2022-12-22T05:12:26.956Z,67.13
2022-12-22T05:14:54.864Z,65.05
2022-12-22T05:17:22.567Z,63.63
2022-12-22T05:19:50.468Z,66.10
2022-12-22T05:22:18.064Z,62.67
2022-12-22T05:24:45.879Z,66.40
2022-12-22T05:27:13.556Z,64.40
2022-12-22T05:29:41.522Z,65.65
2022-12-22T05:32:09.095Z,63.67
2022-12-22T05:34:37.058Z,65.93
2022-12-22T05:37:04.705Z,64.63
2022-12-22T05:39:32.761Z,63.25
2022-12-22T05:42:00.498Z,71.05
2022-12-22T05:44:28.373Z,65.82
2022-12-22T05:46:55.972Z,67.88
2022-12-22T05:49:23.978Z,68.90
2022-12-22T05:51:54.061Z,66.13
2022-12-22T05:54:21.987Z,68.38
2022-12-22T05:56:49.534Z,65.03
2022-12-22T05:59:17.410Z,71.32
2022-12-22T06:01:45.048Z,70.90
2022-12-22T06:04:13.194Z,68.32
2022-12-22T06:06:40.749Z,67.50
2022-12-22T06:09:08.627Z,67.07
2022-12-22T06:11:36.139Z,68.60
2022-12-22T06:14:04.322Z,68.05
2022-12-22T06:16:32.015Z,67.93
2022-12-22T06:19:00.012Z,67.93
2022-12-22T06:21:27.664Z,64.40
2022-12-22T06:23:55.739Z,64.80
2022-12-22T06:26:23.399Z,66.50
2022-12-22T06:28:51.325Z,67.85
2022-12-22T06:31:18.978Z,65.28
2022-12-22T06:33:47.918Z,73.70
2022-12-22T06:36:15.511Z,69.93
2022-12-22T06:38:43.380Z,71.30
2022-12-22T06:41:10.943Z,72.78
2022-12-22T06:43:38.887Z,74.22
2022-12-22T06:46:06.478Z,74.38
2022-12-22T06:48:34.572Z,65.10
2022-12-22T06:51:02.314Z,68.28
2022-12-22T06:53:30.235Z,68.35
2022-12-22T06:55:57.837Z,68.40
2022-12-22T06:58:25.987Z,71.75
2022-12-22T07:00:56.799Z,74.50
2022-12-22T07:03:24.884Z,74.25
2022-12-22T07:05:52.539Z,77.10
2022-12-22T07:08:20.419Z,76.75
2022-12-22T07:11:00.313Z,78.70
2022-12-22T07:13:37.199Z,75.35
2022-12-22T07:16:07.588Z,77.97
2022-12-22T07:18:38.936Z,76.78
2022-12-22T07:21:11.380Z,76.75
2022-12-22T07:23:40.501Z,72.05
2022-12-22T07:26:10.771Z,72.25
2022-12-22T07:28:41.252Z,74.13
2022-12-22T07:31:10.696Z,75.22
2022-12-22T07:33:39.597Z,74.43
2022-12-22T07:36:20.317Z,72.70
2022-12-22T07:38:51.560Z,76.25
2022-12-22T07:41:58.916Z,73.75
2022-12-22T07:44:35.928Z,73.57
2022-12-22T07:47:03.756Z,76.22
2022-12-22T07:49:49.999Z,75.50
2022-12-22T07:52:17.657Z,73.45
2022-12-22T07:54:45.712Z,81.72
2022-12-22T07:57:13.498Z,79.22
2022-12-22T07:59:41.460Z,76.47
2022-12-22T08:02:12.561Z,75.80
2022-12-22T08:04:40.853Z,76.00
2022-12-22T08:07:08.606Z,76.88
2022-12-22T08:09:36.596Z,77.57
2022-12-22T08:12:04.583Z,77.13
2022-12-22T08:14:32.453Z,73.82
2022-12-22T08:17:00.001Z,77.57
2022-12-22T08:19:28.027Z,77.70
2022-12-22T08:21:55.726Z,74.10
2022-12-22T08:24:23.632Z,76.47
2022-12-22T08:26:55.269Z,75.28
2022-12-22T08:29:42.853Z,75.93
2022-12-22T08:32:13.066Z,71.30
2022-12-22T08:34:41.422Z,72.47
2022-12-22T08:37:16.747Z,73.05
2022-12-22T08:39:50.393Z,77.63
2022-12-22T08:42:20.283Z,74.82
2022-12-22T08:44:53.337Z,74.28
2022-12-22T08:47:22.273Z,73.75
2022-12-22T08:49:50.780Z,72.20
2022-12-22T08:52:19.386Z,68.28
2022-12-22T08:54:47.621Z,70.45
2022-12-22T08:57:15.260Z,70.53
2022-12-22T08:59:43.178Z,70.55
2022-12-22T09:02:10.823Z,69.07
2022-12-22T09:04:38.828Z,70.68
2022-12-22T09:07:06.425Z,69.72
2022-12-22T09:09:35.411Z,71.85
2022-12-22T09:12:04.157Z,70.68
2022-12-22T09:14:32.891Z,68.35
2022-12-22T09:17:00.877Z,67.38
2022-12-22T09:19:28.895Z,66.85
2022-12-22T09:21:56.417Z,67.00
2022-12-22T09:24:24.281Z,69.00
2022-12-22T09:26:51.813Z,69.72
2022-12-22T09:29:19.970Z,70.15
2022-12-22T09:31:47.591Z,70.97
2022-12-22T09:34:18.446Z,71.75
2022-12-22T09:36:47.604Z,69.88
2022-12-22T09:39:16.231Z,71.18
2022-12-22T09:41:54.890Z,73.30
2022-12-22T09:44:44.953Z,74.10
2022-12-22T09:47:37.942Z,75.10
2022-12-22T09:50:11.098Z,70.57
2022-12-22T09:52:46.576Z,72.80
2022-12-22T09:55:44.576Z,73.53
2022-12-22T09:58:27.934Z,71.97
2022-12-22T10:01:34.885Z,75.65
2022-12-22T10:04:48.098Z,76.43
2022-12-22T10:07:33.022Z,76.07
2022-12-22T10:10:27.716Z,77.03
2022-12-22T10:12:59.483Z,80.70
2022-12-22T10:15:28.020Z,76.90
2022-12-22T10:18:20.406Z,75.60
2022-12-22T10:21:06.719Z,75.53
2022-12-22T10:23:45.876Z,78.55
2022-12-22T10:26:29.127Z,83.30
2022-12-22T10:29:18.061Z,81.80
2022-12-22T10:32:04.191Z,82.18
2022-12-22T10:34:32.747Z,83.03
2022-12-22T10:37:03.781Z,86.45
2022-12-22T10:39:35.626Z,97.65
2022-12-22T10:42:14.240Z,107.85
2022-12-22T10:44:48.287Z,106.90
2022-12-22T10:47:20.652Z,100.15
2022-12-22T10:52:31.832Z,87.95
2022-12-22T10:55:26.187Z,83.85
2022-12-22T10:58:16.184Z,84.32
2022-12-22T11:00:47.670Z,82.80
2022-12-22T11:03:31.083Z,80.00
2022-12-22T11:06:00.999Z,76.28
2022-12-22T11:08:30.688Z,73.18
2022-12-22T11:11:45.085Z,72.55
2022-12-22T11:14:34.042Z,75.35
2022-12-22T11:17:35.067Z,79.00
2022-12-22T11:20:44.575Z,80.00
2022-12-22T11:23:18.448Z,76.45
2022-12-22T11:25:53.070Z,77.00
2022-12-22T11:28:48.379Z,70.72
2022-12-22T11:31:24.346Z,67.68
2022-12-22T11:34:05.285Z,70.55
2022-12-22T11:37:19.406Z,71.65
2022-12-22T11:40:02.073Z,71.10
2022-12-22T11:43:06.462Z,71.07
2022-12-22T11:45:43.556Z,72.40
2022-12-22T11:48:29.853Z,73.10
2022-12-22T11:51:27.714Z,73.35
2022-12-22T11:54:47.285Z,74.05
2022-12-22T12:00:15.862Z,76.22
2022-12-22T12:03:14.539Z,78.00
2022-12-22T12:06:19.069Z,77.13
2022-12-22T12:09:21.936Z,76.07
2022-12-22T12:12:00.458Z,77.18
2022-12-22T12:14:37.699Z,80.25
2022-12-22T12:17:28.883Z,80.63
2022-12-22T12:20:16.346Z,83.93
2022-12-22T12:23:14.093Z,84.15
2022-12-22T12:25:53.025Z,81.05
2022-12-22T12:29:09.802Z,82.65
2022-12-22T12:31:56.641Z,80.90
2022-12-22T12:34:25.643Z,81.45
2022-12-22T12:37:08.837Z,81.20
2022-12-22T12:39:57.462Z,78.50
2022-12-22T12:42:42.095Z,82.13
2022-12-22T12:45:43.869Z,81.57
2022-12-22T12:48:21.028Z,80.60
2022-12-22T12:50:55.413Z,82.95
2022-12-22T12:53:26.361Z,81.47
2022-12-22T12:56:00.016Z,81.55
2022-12-22T12:58:39.570Z,78.65
2022-12-22T13:01:13.367Z,79.47
2022-12-22T13:06:55.908Z,74.25
2022-12-22T13:09:49.896Z,75.57
2022-12-22T13:12:38.468Z,75.75
2022-12-22T13:15:30.503Z,74.95
2022-12-22T13:17:59.444Z,78.22
2022-12-22T13:20:35.566Z,94.30
2022-12-22T13:23:12.509Z,104.32
2022-12-22T13:25:58.818Z,102.93
2022-12-22T13:28:28.088Z,97.55
2022-12-22T13:31:20.185Z,89.03
2022-12-22T13:34:08.410Z,89.40
2022-12-22T13:36:37.516Z,91.20
2022-12-22T13:39:15.477Z,93.03
2022-12-22T13:41:48.481Z,99.68
2022-12-22T13:44:24.581Z,103.40
2022-12-22T13:46:53.919Z,105.28
2022-12-22T13:49:51.645Z,109.20
2022-12-22T13:52:17.444Z,111.07
2022-12-22T13:54:46.735Z,108.47
2022-12-22T13:57:22.769Z,110.72
2022-12-22T13:59:51.945Z,105.03
2022-12-22T14:02:21.596Z,97.40
2022-12-22T14:05:13.170Z,94.28
2022-12-22T14:08:05.007Z,90.43
2022-12-22T14:10:35.792Z,89.93
2022-12-22T14:13:18.385Z,89.95
2022-12-22T14:15:47.328Z,90.97
2022-12-22T14:18:18.051Z,97.25
2022-12-22T14:21:04.590Z,101.80
2022-12-22T14:23:41.917Z,108.53
2022-12-22T14:26:17.776Z,114.72
2022-12-22T14:28:53.496Z,115.47
2022-12-22T14:31:21.078Z,119.32
2022-12-22T14:34:05.327Z,117.75
2022-12-22T14:36:40.633Z,123.75
2022-12-22T14:39:10.915Z,115.50
2022-12-22T14:42:05.164Z,114.30
2022-12-22T14:44:42.348Z,112.90
2022-12-22T14:47:15.099Z,110.15
2022-12-22T14:49:52.151Z,117.60
2022-12-22T14:52:45.114Z,118.88
2022-12-22T14:55:48.719Z,117.15
2022-12-22T14:58:29.609Z,111.78
2022-12-22T15:01:30.645Z,105.40
2022-12-22T15:04:05.102Z,108.18
2022-12-22T15:06:37.720Z,108.65
2022-12-22T15:09:06.594Z,109.25
2022-12-22T15:11:37.374Z,113.30
2022-12-22T15:14:05.289Z,109.28
2022-12-22T15:16:33.147Z,102.90
2022-12-22T15:19:00.712Z,105.90
2022-12-22T15:21:28.559Z,104.55
2022-12-22T15:23:56.106Z,101.93
2022-12-22T15:26:23.879Z,104.05
2022-12-22T15:28:51.435Z,102.63
2022-12-22T15:31:19.504Z,102.40
2022-12-22T15:33:47.143Z,105.28
2022-12-22T15:36:15.356Z,109.18
2022-12-22T15:38:43.400Z,111.22
2022-12-22T15:41:11.182Z,109.90
2022-12-22T15:43:57.433Z,103.05
2022-12-22T15:46:26.146Z,102.10
2022-12-22T15:48:53.704Z,107.40
2022-12-22T15:51:26.813Z,108.53
2022-12-22T15:53:57.099Z,107.70
2022-12-22T15:56:28.642Z,107.20
2022-12-22T15:58:56.973Z,108.10
2022-12-22T16:01:24.862Z,107.97
2022-12-22T16:03:52.623Z,103.38
2022-12-22T16:06:21.463Z,103.22
2022-12-22T16:08:53.374Z,108.50
2022-12-22T16:11:21.443Z,104.55
2022-12-22T16:13:51.070Z,105.53
2022-12-22T16:16:19.230Z,101.00
2022-12-22T16:18:46.775Z,97.97
2022-12-22T16:21:21.027Z,98.82
2022-12-22T16:23:50.578Z,100.38
2022-12-22T16:26:21.340Z,99.03
2022-12-22T16:28:49.391Z,98.28
2022-12-22T16:31:27.054Z,101.15
2022-12-22T16:33:54.717Z,99.95
2022-12-22T16:36:22.531Z,96.30
2022-12-22T16:38:50.089Z,100.28
2022-12-22T16:41:25.773Z,99.55
2022-12-22T16:46:40.834Z,101.90
2022-12-22T16:49:09.494Z,104.47
2022-12-22T16:51:47.561Z,116.32
2022-12-22T16:54:15.644Z,111.82
2022-12-22T16:56:47.120Z,115.88
2022-12-22T16:59:15.048Z,116.57
2022-12-22T17:01:52.037Z,114.22
2022-12-22T17:04:32.679Z,114.70
2022-12-22T17:07:02.402Z,113.30
2022-12-22T17:09:45.664Z,114.22
2022-12-22T17:12:24.992Z,109.22
2022-12-22T17:14:54.537Z,107.63
2022-12-22T17:17:30.872Z,106.72
2022-12-22T17:20:01.285Z,105.40
2022-12-22T17:22:33.555Z,108.40
2022-12-22T17:25:05.702Z,109.05
2022-12-22T17:27:34.928Z,108.82
2022-12-22T17:30:04.317Z,105.55
2022-12-22T17:32:32.227Z,98.07
2022-12-22T17:34:59.802Z,98.80
2022-12-22T17:37:27.731Z,96.07
2022-12-22T17:40:01.669Z,96.30
2022-12-22T17:42:32.014Z,90.53
2022-12-22T17:44:59.662Z,92.90
2022-12-22T17:47:33.238Z,90.20
2022-12-22T17:50:04.040Z,85.85
2022-12-22T17:52:32.496Z,88.45
2022-12-22T17:55:00.492Z,81.20
2022-12-22T17:57:34.763Z,83.88
2022-12-22T18:00:02.885Z,84.68
2022-12-22T18:02:39.676Z,82.93
2022-12-22T18:05:16.338Z,93.03
2022-12-22T18:07:45.542Z,99.88
2022-12-22T18:10:28.529Z,98.90
2022-12-22T18:12:59.332Z,99.60
2022-12-22T18:15:29.708Z,105.45
2022-12-22T18:17:57.975Z,103.38
2022-12-22T18:20:27.492Z,105.90
2022-12-22T18:23:02.301Z,129.25
2022-12-22T18:25:33.396Z,120.10
2022-12-22T18:28:01.372Z,119.63
2022-12-22T18:30:30.238Z,119.10
2022-12-22T18:32:58.107Z,119.55
2022-12-22T18:35:29.266Z,117.13
2022-12-22T18:37:58.076Z,111.47
2022-12-22T18:40:36.966Z,105.20
2022-12-22T18:43:12.808Z,92.18
2022-12-22T18:45:40.768Z,85.68
2022-12-22T18:48:09.619Z,84.47
2022-12-22T18:50:37.354Z,84.53
2022-12-22T18:53:28.401Z,85.75
2022-12-22T18:55:56.919Z,88.80
2022-12-22T18:58:25.938Z,84.82
2022-12-22T19:00:56.041Z,86.70
2022-12-22T19:03:29.509Z,88.32
2022-12-22T19:05:58.290Z,90.03
2022-12-22T19:08:28.681Z,90.18
2022-12-22T19:11:00.571Z,92.75
2022-12-22T19:13:44.275Z,97.70
2022-12-22T19:16:19.182Z,109.30
2022-12-22T19:18:47.164Z,123.57
2022-12-22T19:21:17.701Z,131.40
2022-12-22T19:23:46.130Z,133.68
2022-12-22T19:26:27.279Z,138.43
2022-12-22T19:29:00.722Z,140.82
2022-12-22T19:31:33.091Z,134.88
2022-12-22T19:34:05.664Z,129.48
2022-12-22T19:36:33.479Z,124.45
2022-12-22T19:39:05.004Z,117.75
2022-12-22T19:41:58.849Z,114.20
2022-12-22T19:44:30.661Z,103.25
2022-12-22T19:47:01.765Z,101.90
2022-12-22T19:49:30.192Z,100.18
2022-12-22T19:51:58.074Z,102.05
2022-12-22T19:54:26.123Z,106.43
2022-12-22T19:56:56.662Z,104.13
2022-12-22T19:59:39.951Z,100.15
2022-12-22T20:02:30.646Z,95.85
2022-12-22T20:04:59.756Z,93.35
2022-12-22T20:07:30.564Z,89.55
2022-12-22T20:09:58.601Z,90.35
2022-12-22T20:12:36.476Z,85.95
2022-12-22T20:15:20.048Z,83.65
2022-12-22T20:17:50.330Z,85.60
2022-12-22T20:20:25.467Z,82.90
2022-12-22T20:22:56.853Z,85.10
2022-12-22T20:25:28.143Z,83.45
2022-12-22T20:27:56.816Z,84.88
2022-12-22T20:30:30.368Z,83.38
2022-12-22T20:32:57.925Z,86.28
2022-12-22T20:35:26.095Z,91.72
2022-12-22T20:37:53.775Z,90.47
2022-12-22T20:40:30.021Z,88.07
2022-12-22T20:42:58.719Z,80.97
2022-12-22T20:45:31.365Z,73.25
2022-12-22T20:48:00.325Z,68.90
2022-12-22T20:50:34.603Z,71.93
2022-12-22T20:53:02.621Z,68.70
2022-12-22T20:55:31.133Z,63.58
2022-12-22T20:57:58.729Z,54.35
2022-12-22T21:00:29.187Z,53.33
2022-12-22T21:02:57.566Z,49.53
2022-12-22T21:05:25.895Z,50.35
2022-12-22T21:07:53.498Z,54.78
2022-12-22T21:10:26.429Z,55.13
2022-12-22T21:12:54.931Z,56.67
2022-12-22T21:15:28.228Z,57.97
2022-12-22T21:17:58.902Z,60.85
2022-12-22T21:20:29.707Z,62.38
2022-12-22T21:22:57.562Z,72.18
2022-12-22T21:25:26.102Z,72.72
2022-12-22T21:27:55.081Z,73.35
2022-12-22T21:30:27.986Z,69.95
2022-12-22T21:32:57.408Z,69.55
2022-12-22T21:35:34.065Z,70.40
2022-12-22T21:38:02.585Z,66.97
2022-12-22T21:40:32.977Z,64.03
2022-12-22T21:43:00.957Z,65.82
2022-12-22T21:45:31.798Z,63.47
2022-12-22T21:48:01.064Z,64.43
2022-12-22T21:50:34.973Z,66.25
2022-12-22T21:53:02.938Z,72.28
2022-12-22T21:55:37.178Z,89.80
2022-12-22T21:58:07.535Z,85.78
2022-12-22T22:00:35.821Z,88.47
2022-12-22T22:03:04.603Z,91.57
2022-12-22T22:05:38.362Z,89.32
2022-12-22T22:08:09.902Z,94.38
2022-12-22T22:10:41.484Z,99.40
2022-12-22T22:13:15.620Z,102.55
2022-12-22T22:15:43.699Z,101.82
2022-12-22T22:18:19.778Z,105.00
2022-12-22T22:20:48.004Z,102.13
2022-12-22T22:23:15.906Z,99.30
2022-12-22T22:25:43.573Z,96.90
2022-12-22T22:28:12.274Z,98.25
2022-12-22T22:30:42.104Z,101.07
2022-12-22T22:35:40.612Z,100.60
2022-12-22T22:38:13.492Z,105.45
2022-12-22T22:40:44.431Z,102.95
2022-12-22T22:43:14.185Z,100.85
2022-12-22T22:48:21.257Z,97.68
2022-12-22T22:50:50.229Z,104.72
2022-12-22T22:53:18.590Z,105.25
2022-12-22T22:55:46.183Z,110.10
2022-12-22T22:58:15.237Z,103.43
2022-12-22T23:00:42.839Z,104.85
2022-12-22T23:03:10.858Z,101.45
2022-12-22T23:05:38.561Z,103.60
2022-12-22T23:08:06.409Z,102.00
2022-12-22T23:10:41.157Z,101.97
2022-12-22T23:13:09.740Z,102.65
2022-12-22T23:15:37.343Z,105.93
2022-12-22T23:18:05.266Z,100.32
2022-12-22T23:20:32.793Z,102.20
2022-12-22T23:23:00.619Z,100.53
2022-12-22T23:25:28.272Z,102.63
2022-12-22T23:27:56.102Z,143.52
2022-12-22T23:30:23.715Z,124.03
2022-12-22T23:32:51.745Z,105.55
2022-12-22T23:35:19.333Z,135.73
2022-12-22T23:37:47.389Z,143.52
2022-12-22T23:40:50.306Z,140.05
2022-12-22T23:43:04.237Z,134.30
2022-12-22T23:45:33.012Z,127.00
2022-12-22T23:48:00.917Z,124.03
2022-12-22T23:50:28.519Z,117.30
2022-12-22T23:52:56.496Z,119.72
2022-12-22T23:55:24.172Z,122.95
2022-12-22T23:57:53.359Z,123.70
